Time;durP1;ratioP1;P1;durP2;ratioP2;P2;SDS_P1;SDS_P2;PMS_P1;PMS_P2;Temp;Humidity;BMP_temperature;BMP_pressure;BME280_temperature;BME280_humidity;BME280_pressure;Samples;Min_cycle;Max_cycle;Signal;HPM_P1;HPM_P2
2021/12/17 00:00:46;;;;;;;19.15;6.45;;;7.60;95.70;;;;;;5052092;28;20029;-76
2021/12/17 00:03:31;;;;;;;19.60;6.63;;;7.60;95.70;;;;;;5052268;28;20085;-75
2021/12/17 00:08:47;;;;;;;24.92;7.32;;;7.60;95.50;;;;;;5053583;28;20466;-75
2021/12/17 00:11:15;;;;;;;22.10;8.70;;;7.60;95.40;;;;;;5051822;28;20029;-75
2021/12/17 00:13:45;;;;;;;21.90;8.20;;;7.60;95.30;;;;;;5051966;28;20044;-75
2021/12/17 00:16:22;;;;;;;22.42;7.10;;;7.60;95.20;;;;;;5051926;28;20091;-76
2021/12/17 00:19:19;;;;;;;21.83;6.40;;;7.60;95.10;;;;;;5053441;28;20017;-76
2021/12/17 00:49:05;;;;;;;23.23;5.32;;;7.60;94.80;;;;;;5055879;28;20595;-75
2021/12/17 00:54:29;;;;;;;22.10;5.80;;;7.60;94.70;;;;;;5055765;28;20064;-75
2021/12/17 00:57:14;;;;;;;21.98;6.13;;;7.70;94.70;;;;;;5057204;28;20041;-75
2021/12/17 00:59:51;;;;;;;17.70;4.88;;;7.70;94.70;;;;;;5056751;28;20032;-75
2021/12/17 01:02:22;;;;;;;13.07;4.75;;;7.70;94.60;;;;;;5056711;28;20040;-75
2021/12/17 01:04:53;;;;;;;19.80;5.05;;;7.70;94.50;;;;;;5055152;28;20119;-75
2021/12/17 01:07:26;;;;;;;16.75;5.30;;;7.70;94.60;;;;;;5038499;28;20102;-75
2021/12/17 01:09:56;;;;;;;27.27;6.00;;;7.60;94.70;;;;;;5038501;28;20116;-76
2021/12/17 01:12:24;;;;;;;16.98;5.53;;;7.60;94.70;;;;;;5038403;28;20037;-75
2021/12/17 01:14:53;;;;;;;21.02;6.00;;;7.60;94.70;;;;;;5054974;28;20095;-75
2021/12/17 01:17:30;;;;;;;22.30;5.30;;;7.60;94.90;;;;;;5054837;28;20474;-75
2021/12/17 01:23:21;;;;;;;23.27;5.68;;;7.60;94.70;;;;;;5074349;28;20063;-75
2021/12/17 01:36:32;;;;;;;21.90;5.40;;;7.40;95.40;;;;;;5055880;28;20440;-75
2021/12/17 01:44:14;;;;;;;19.10;5.35;;;7.50;95.40;;;;;;5055822;28;20029;-74
2021/12/17 01:46:45;;;;;;;17.35;5.07;;;7.50;95.40;;;;;;5054793;28;20095;-75
2021/12/17 02:00:18;;;;;;;16.17;6.38;;;7.50;94.60;;;;;;5055748;28;20386;-76
2021/12/17 02:02:51;;;;;;;19.15;6.03;;;7.50;94.70;;;;;;5054273;28;20375;-76
2021/12/17 02:05:19;;;;;;;19.52;6.75;;;7.50;94.60;;;;;;5055691;28;20033;-76
2021/12/17 02:07:48;;;;;;;17.88;6.55;;;7.50;94.40;;;;;;5054066;28;20060;-75
2021/12/17 02:29:40;;;;;;;;;;;7.60;94.80;;;;;;5056020;28;20051;-75
2021/12/17 02:32:11;;;;;;;15.90;5.50;;;7.50;94.30;;;;;;5055167;28;19935;-75
2021/12/17 02:35:03;;;;;;;17.20;6.38;;;7.50;94.50;;;;;;5053614;28;20363;-74
2021/12/17 02:37:32;;;;;;;16.83;5.78;;;7.40;94.50;;;;;;5053611;28;20048;-75
2021/12/17 02:45:38;;;;;;;17.48;5.68;;;7.40;94.70;;;;;;5072583;28;20033;-75
2021/12/17 02:48:12;;;;;;;23.38;6.72;;;7.50;94.40;;;;;;5072550;28;20501;-76
2021/12/17 02:50:58;;;;;;;15.43;5.55;;;7.40;94.20;;;;;;5072657;28;20035;-76
2021/12/17 02:53:28;;;;;;;18.35;5.60;;;7.40;94.20;;;;;;5066521;28;20466;-76
2021/12/17 02:56:06;;;;;;;16.83;5.57;;;7.40;94.30;;;;;;5053837;28;20051;-76
2021/12/17 02:58:41;;;;;;;14.50;5.05;;;7.40;94.20;;;;;;5054600;28;20024;-76
2021/12/17 03:01:11;;;;;;;17.73;5.80;;;7.40;94.10;;;;;;5052967;28;20374;-76
2021/12/17 03:03:40;;;;;;;16.17;5.32;;;7.40;94.20;;;;;;5053164;28;20025;-75
2021/12/17 03:06:07;;;;;;;16.65;5.10;;;7.40;94.00;;;;;;5053007;28;20055;-76
2021/12/17 03:08:35;;;;;;;14.60;4.80;;;7.40;93.80;;;;;;5050021;28;20554;-76
2021/12/17 03:11:02;;;;;;;15.35;6.25;;;7.40;93.80;;;;;;5053049;28;20555;-75
2021/12/17 03:13:32;;;;;;;12.27;5.22;;;7.40;94.00;;;;;;5052736;28;20033;-76
2021/12/17 03:16:09;;;;;;;15.90;5.72;;;7.40;93.90;;;;;;5053021;28;20033;-75
2021/12/17 03:24:02;;;;;;;16.00;4.60;;;7.40;94.00;;;;;;5053184;28;20083;-75
2021/12/17 03:26:29;;;;;;;17.90;5.07;;;7.40;94.10;;;;;;5052726;28;20021;-75
2021/12/17 03:29:04;;;;;;;19.08;5.90;;;7.40;93.90;;;;;;5052580;28;20037;-75
2021/12/17 03:31:31;;;;;;;18.23;5.63;;;7.40;93.80;;;;;;5036487;28;20432;-75
2021/12/17 03:34:27;;;;;;;20.58;5.80;;;7.40;93.80;;;;;;5053909;28;20076;-75
2021/12/17 03:36:56;;;;;;;15.80;5.22;;;7.40;93.80;;;;;;5053278;28;20082;-75
2021/12/17 03:39:24;;;;;;;17.15;4.93;;;7.30;93.80;;;;;;5052335;28;20091;-75
2021/12/17 03:41:52;;;;;;;18.40;5.95;;;7.30;93.80;;;;;;5035904;28;20040;-75
2021/12/17 03:44:20;;;;;;;19.10;5.78;;;7.40;93.80;;;;;;5052516;28;20033;-76
2021/12/17 03:46:48;;;;;;;10.55;4.60;;;7.30;94.00;;;;;;5052402;28;20049;-75
2021/12/17 03:49:15;;;;;;;16.27;5.13;;;7.40;93.80;;;;;;5053858;28;20059;-75
2021/12/17 03:54:38;;;;;;;20.20;5.43;;;7.40;93.70;;;;;;5047358;28;20128;-76
2021/12/17 03:57:21;;;;;;;13.55;5.28;;;7.40;93.70;;;;;;5052226;28;20117;-74
2021/12/17 03:59:46;;;;;;;13.18;4.93;;;7.40;93.50;;;;;;5053658;28;20075;-75
2021/12/17 04:02:33;;;;;;;21.33;5.97;;;7.40;93.50;;;;;;5053116;28;20458;-75
2021/12/17 04:05:00;;;;;;;19.17;5.38;;;7.40;93.60;;;;;;5053535;28;20029;-75
2021/12/17 04:07:29;;;;;;;16.45;6.00;;;7.40;93.70;;;;;;5052490;28;20055;-75
2021/12/17 04:09:58;;;;;;;14.57;4.65;;;7.40;93.60;;;;;;5053638;28;20048;-76
2021/12/17 04:12:50;;;;;;;16.45;5.45;;;7.40;93.50;;;;;;5052093;28;20458;-76
2021/12/17 04:15:19;;;;;;;15.15;4.45;;;7.50;94.00;;;;;;5053453;28;20039;-75
2021/12/17 04:17:54;;;;;;;10.48;4.38;;;7.40;93.60;;;;;;5053599;28;20485;-75
2021/12/17 04:20:20;;;;;;;16.80;4.97;;;7.40;93.30;;;;;;5052959;28;20056;-75
2021/12/17 04:22:48;;;;;;;9.75;5.03;;;7.40;93.30;;;;;;5053462;28;20025;-75
2021/12/17 04:25:14;;;;;;;15.82;4.57;;;7.40;93.40;;;;;;5053495;28;20074;-76
2021/12/17 04:27:41;;;;;;;22.15;5.53;;;7.40;93.20;;;;;;5052684;28;20432;-77
2021/12/17 04:30:07;;;;;;;17.15;7.15;;;7.40;93.30;;;;;;5053193;28;20413;-76
2021/12/17 04:32:34;;;;;;;18.15;4.72;;;7.40;93.30;;;;;;5053527;28;20021;-75
2021/12/17 04:35:00;;;;;;;18.13;5.47;;;7.50;93.40;;;;;;5053389;28;20021;-76
2021/12/17 04:37:27;;;;;;;17.67;5.07;;;7.40;93.20;;;;;;5051986;28;20017;-75
2021/12/17 04:39:53;;;;;;;16.25;4.45;;;7.40;93.20;;;;;;5053033;28;20102;-75
2021/12/17 04:45:14;;;;;;;20.85;5.03;;;7.50;93.20;;;;;;5052410;28;20029;-76
2021/12/17 04:58:45;;;;;;;17.85;5.85;;;7.50;93.00;;;;;;5053190;28;20463;-76
2021/12/17 05:01:15;;;;;;;17.00;5.53;;;7.40;93.00;;;;;;5051632;28;20116;-76
2021/12/17 05:03:42;;;;;;;15.57;4.57;;;7.40;92.90;;;;;;5051711;28;20474;-77
2021/12/17 05:06:09;;;;;;;12.88;4.60;;;7.40;93.00;;;;;;5052955;28;20025;-76
2021/12/17 05:08:37;;;;;;;17.60;4.68;;;7.40;92.70;;;;;;5051458;28;20528;-77
2021/12/17 05:19:51;;;;;;;23.83;5.68;;;7.30;92.70;;;;;;5056219;28;20083;-75
2021/12/17 05:22:10;;;;;;;17.27;5.55;;;7.30;92.60;;;;;;5056851;28;20116;-75
2021/12/17 05:24:44;;;;;;;19.27;6.05;;;7.20;92.60;;;;;;5056557;28;20413;-75
2021/12/17 05:27:11;;;;;;;20.27;6.05;;;7.20;92.80;;;;;;5056164;28;20051;-75
2021/12/17 05:29:39;;;;;;;23.85;6.68;;;7.10;92.90;;;;;;5056224;28;20032;-75
2021/12/17 05:32:06;;;;;;;19.60;6.22;;;7.10;93.00;;;;;;5055835;28;20086;-75
2021/12/17 05:34:33;;;;;;;18.33;4.88;;;7.00;93.20;;;;;;5056037;28;20024;-76
2021/12/17 05:37:01;;;;;;;24.00;7.65;;;7.00;93.30;;;;;;5054532;28;20033;-76
2021/12/17 05:39:26;;;;;;;18.27;6.45;;;7.00;93.40;;;;;;5054476;28;20009;-76
2021/12/17 05:41:52;;;;;;;15.35;6.88;;;6.90;93.50;;;;;;5055765;28;20474;-76
2021/12/17 05:44:21;;;;;;;24.60;5.75;;;6.90;93.40;;;;;;5055786;28;20020;-76
2021/12/17 05:46:52;;;;;;;15.15;5.47;;;6.90;93.50;;;;;;5054225;28;20025;-74
2021/12/17 05:49:27;;;;;;;19.95;5.75;;;6.90;93.50;;;;;;5056005;28;20044;-75
2021/12/17 05:51:54;;;;;;;20.25;6.65;;;6.90;93.80;;;;;;5055818;28;20493;-75
2021/12/17 05:54:23;;;;;;;17.67;5.93;;;6.90;93.30;;;;;;5055350;28;20436;-76
2021/12/17 05:56:49;;;;;;;17.80;5.13;;;6.90;93.40;;;;;;5055450;28;20124;-75
2021/12/17 05:59:17;;;;;;;11.85;5.05;;;6.90;93.10;;;;;;5055241;28;20025;-75
2021/12/17 06:01:44;;;;;;;23.30;6.15;;;6.90;93.00;;;;;;5055384;28;20470;-76
2021/12/17 06:04:11;;;;;;;27.45;7.13;;;6.90;93.00;;;;;;5055667;28;20032;-76
2021/12/17 06:06:38;;;;;;;18.63;6.53;;;6.90;93.10;;;;;;5056065;28;20025;-74
2021/12/17 06:09:08;;;;;;;17.70;5.47;;;6.90;93.10;;;;;;5055254;28;20025;-73
2021/12/17 06:11:35;;;;;;;23.67;7.30;;;6.90;93.10;;;;;;5054205;28;20037;-73
2021/12/17 06:14:03;;;;;;;19.27;6.47;;;6.80;93.00;;;;;;5054008;28;20520;-74
2021/12/17 06:16:33;;;;;;;26.85;6.00;;;6.80;93.00;;;;;;5053685;28;20056;-74
2021/12/17 06:19:01;;;;;;;25.08;6.38;;;6.70;93.00;;;;;;5053710;28;20013;-74
2021/12/17 06:21:41;;;;;;;24.58;7.00;;;6.70;93.20;;;;;;5054030;28;20043;-73
2021/12/17 06:24:10;;;;;;;16.63;7.25;;;6.60;93.30;;;;;;5053318;28;20079;-73
2021/12/17 06:26:38;;;;;;;22.73;7.38;;;6.50;93.50;;;;;;5054460;28;20031;-73
2021/12/17 06:29:18;;;;;;;21.20;7.57;;;6.50;93.90;;;;;;5054702;28;20021;-73
2021/12/17 06:31:45;;;;;;;22.25;7.20;;;6.40;94.10;;;;;;5053383;28;20036;-74
2021/12/17 06:34:12;;;;;;;23.10;7.13;;;6.30;94.30;;;;;;5054677;28;20416;-74
2021/12/17 06:36:41;;;;;;;22.13;6.80;;;6.20;94.60;;;;;;5054364;28;20381;-74
2021/12/17 06:39:08;;;;;;;24.63;7.10;;;6.30;94.90;;;;;;5053332;28;20043;-74
2021/12/17 06:41:35;;;;;;;17.05;6.25;;;6.20;95.00;;;;;;5054405;28;20470;-73
2021/12/17 06:44:03;;;;;;;19.00;7.47;;;6.20;95.10;;;;;;5053427;28;20009;-74
2021/12/17 06:46:36;;;;;;;21.95;7.00;;;6.30;95.20;;;;;;5073901;28;20047;-74
2021/12/17 06:49:22;;;;;;;17.90;6.47;;;6.20;95.10;;;;;;5072053;28;20025;-74
2021/12/17 07:32:49;;;;;;;15.30;4.60;;;6.90;91.80;;;;;;5077174;28;20497;-78
2021/12/17 07:40:35;;;;;;;19.73;5.30;;;7.00;91.60;;;;;;5075894;28;20381;-80
2021/12/17 07:43:04;;;;;;;22.80;5.43;;;7.10;91.50;;;;;;5059021;28;20032;-80
2021/12/17 07:45:30;;;;;;;13.77;4.45;;;7.20;91.60;;;;;;5076206;28;20048;-78
2021/12/17 07:48:00;;;;;;;22.92;6.45;;;7.20;91.40;;;;;;5075707;28;20028;-77
2021/12/17 07:50:27;;;;;;;18.80;6.97;;;7.30;91.40;;;;;;5056145;28;20033;-77
2021/12/17 07:52:56;;;;;;;16.77;5.55;;;7.40;90.90;;;;;;5051111;28;20029;-79
2021/12/17 07:55:24;;;;;;;22.77;5.20;;;7.40;90.90;;;;;;5058706;28;20052;-78
2021/12/17 07:57:54;;;;;;;17.35;5.43;;;7.50;91.00;;;;;;5064537;28;20098;-79
2021/12/17 08:00:21;;;;;;;14.18;5.32;;;7.50;90.70;;;;;;5073630;28;20033;-79
2021/12/17 08:02:48;;;;;;;17.88;6.53;;;7.60;90.50;;;;;;5072515;28;20024;-80
2021/12/17 08:05:18;;;;;;;18.38;5.32;;;7.60;90.40;;;;;;5072118;28;20085;-80
2021/12/17 08:07:45;;;;;;;15.52;5.07;;;7.60;90.10;;;;;;5072149;28;20070;-78
2021/12/17 08:10:11;;;;;;;13.77;4.75;;;7.60;90.00;;;;;;5060486;28;20057;-79
2021/12/17 08:12:39;;;;;;;17.25;5.22;;;7.60;90.20;;;;;;5051534;28;20021;-77
2021/12/17 08:15:08;;;;;;;11.23;4.53;;;7.60;89.80;;;;;;5053104;28;20017;-80
2021/12/17 08:26:13;;;;;;;14.50;4.03;;;7.50;87.60;;;;;;5052729;28;20120;-75
2021/12/17 08:31:44;;;;;;;13.48;5.03;;;7.50;86.70;;;;;;5050882;28;20079;-75
2021/12/17 08:34:12;;;;;;;12.95;4.60;;;7.40;86.40;;;;;;5034061;28;20478;-75
2021/12/17 08:36:39;;;;;;;9.73;4.43;;;7.40;87.20;;;;;;5050790;28;20104;-76
2021/12/17 08:39:05;;;;;;;18.02;4.28;;;7.40;87.50;;;;;;5051277;28;20108;-75
2021/12/17 08:41:33;;;;;;;16.38;4.82;;;7.40;86.80;;;;;;5051679;28;20052;-76
2021/12/17 08:44:01;;;;;;;16.83;4.40;;;7.40;86.30;;;;;;5052713;28;20100;-74
2021/12/17 08:46:30;;;;;;;18.42;7.18;;;7.40;86.60;;;;;;5052610;28;20029;-76
2021/12/17 08:48:58;;;;;;;23.27;8.02;;;7.40;86.50;;;;;;5053975;28;20047;-73
2021/12/17 08:51:25;;;;;;;13.35;5.30;;;7.40;87.10;;;;;;5056873;28;20318;-74
2021/12/17 08:53:51;;;;;;;15.38;4.93;;;7.40;86.40;;;;;;5054745;28;20386;-75
2021/12/17 08:56:22;;;;;;;18.20;5.50;;;7.40;87.00;;;;;;5054433;28;20049;-76
2021/12/17 08:58:51;;;;;;;16.90;5.93;;;7.40;86.90;;;;;;5054764;28;20033;-76
2021/12/17 09:01:26;;;;;;;15.00;5.28;;;7.40;86.60;;;;;;5070429;28;20115;-77
2021/12/17 09:03:54;;;;;;;16.02;5.38;;;7.40;86.40;;;;;;5093760;28;20049;-76
2021/12/17 09:06:26;;;;;;;12.30;5.40;;;7.40;86.60;;;;;;5095447;28;20048;-75
2021/12/17 09:09:04;;;;;;;;;;;7.50;87.00;;;;;;5095831;28;20024;-75
2021/12/17 09:11:31;;;;;;;21.25;5.78;;;7.40;86.70;;;;;;5084077;28;19908;-77
2021/12/17 09:14:01;;;;;;;16.60;5.78;;;7.50;87.20;;;;;;5075504;28;20029;-75
2021/12/17 09:16:27;;;;;;;19.67;5.00;;;7.50;86.60;;;;;;5074943;28;20033;-77
2021/12/17 09:18:56;;;;;;;13.30;5.50;;;7.50;85.80;;;;;;5075047;28;20020;-75
2021/12/17 09:21:23;;;;;;;17.23;5.95;;;7.50;86.10;;;;;;5076380;28;20108;-77
2021/12/17 09:23:49;;;;;;;12.15;5.28;;;7.50;86.40;;;;;;5076417;28;20078;-71
2021/12/17 09:26:17;;;;;;;17.98;6.18;;;7.60;86.60;;;;;;5075346;28;20028;-72
2021/12/17 09:28:47;;;;;;;14.02;5.28;;;7.70;86.50;;;;;;5075409;28;20029;-71
2021/12/17 09:31:13;;;;;;;11.82;5.40;;;7.70;86.50;;;;;;5075480;28;20104;-71
2021/12/17 09:33:46;;;;;;;15.15;6.70;;;7.80;85.50;;;;;;5074317;28;20069;-74
2021/12/17 09:36:21;;;;;;;19.33;5.45;;;7.80;85.20;;;;;;5075602;28;20028;-74
2021/12/17 09:38:52;;;;;;;23.77;5.93;;;7.80;85.10;;;;;;5074227;28;20044;-76
2021/12/17 09:41:19;;;;;;;17.23;7.18;;;7.70;85.40;;;;;;5058162;28;20481;-74
2021/12/17 09:43:47;;;;;;;12.45;6.07;;;7.80;85.70;;;;;;5074091;28;20023;-74
2021/12/17 09:46:17;;;;;;;16.77;6.05;;;7.80;85.30;;;;;;5081182;28;20030;-74
2021/12/17 09:48:58;;;;;;;23.73;6.30;;;7.90;85.30;;;;;;5095799;28;20032;-72
2021/12/17 09:51:25;;;;;;;13.93;5.20;;;7.90;84.80;;;;;;5095895;28;20024;-73
2021/12/17 09:54:05;;;;;;;19.60;5.45;;;7.90;84.60;;;;;;5095812;28;20118;-73
2021/12/17 09:56:33;;;;;;;15.10;4.78;;;8.00;84.60;;;;;;5095319;28;20503;-73
2021/12/17 09:59:02;;;;;;;12.82;4.10;;;7.90;84.30;;;;;;5094155;28;20023;-74
2021/12/17 10:01:28;;;;;;;18.90;5.20;;;7.90;84.50;;;;;;5093482;28;20092;-77
2021/12/17 10:04:21;;;;;;;16.73;4.90;;;7.90;84.10;;;;;;5094215;28;20056;-73
2021/12/17 10:07:20;;;;;;;13.55;5.18;;;8.00;84.50;;;;;;5093757;28;20028;-74
2021/12/17 10:09:54;;;;;;;16.63;5.68;;;8.00;84.80;;;;;;5093845;28;20028;-74
2021/12/17 10:12:32;;;;;;;15.80;4.95;;;8.00;84.30;;;;;;5095359;28;20021;-75
2021/12/17 10:15:05;;;;;;;15.13;4.63;;;8.00;83.90;;;;;;5093891;28;20089;-74
2021/12/17 10:18:00;;;;;;;16.65;4.93;;;8.00;83.70;;;;;;5095437;28;20055;-74
2021/12/17 10:20:47;;;;;;;17.70;6.15;;;8.10;84.20;;;;;;5095228;28;20370;-74
2021/12/17 10:23:13;;;;;;;14.88;5.60;;;8.10;83.10;;;;;;5094876;28;20024;-76
2021/12/17 10:25:44;;;;;;;23.35;7.13;;;8.10;83.50;;;;;;5093726;28;20024;-74
2021/12/17 10:28:13;;;;;;;17.48;5.38;;;8.10;83.40;;;;;;5094812;28;20055;-75
2021/12/17 10:30:42;;;;;;;14.30;4.60;;;8.10;83.60;;;;;;5093605;28;20036;-74
2021/12/17 10:33:11;;;;;;;12.60;4.53;;;8.10;83.10;;;;;;5093328;28;20016;-75
2021/12/17 10:35:48;;;;;;;14.07;4.30;;;8.10;82.90;;;;;;5076638;28;20077;-75
2021/12/17 10:38:30;;;;;;;11.18;5.28;;;7.90;82.80;;;;;;5094659;28;20020;-73
2021/12/17 10:41:04;;;;;;;19.45;5.57;;;7.90;83.40;;;;;;5084966;28;20470;-73
2021/12/17 10:43:38;;;;;;;11.73;4.13;;;8.00;84.40;;;;;;5074541;28;20021;-75
2021/12/17 10:46:11;;;;;;;13.60;4.43;;;8.00;83.30;;;;;;5063085;28;20035;-73
2021/12/17 10:51:43;;;;;;;14.85;4.97;;;8.00;83.70;;;;;;5094698;28;20393;-75
2021/12/17 10:54:20;;;;;;;16.90;4.20;;;8.10;84.10;;;;;;5094313;28;20020;-71
2021/12/17 10:56:52;;;;;;;15.13;4.75;;;8.10;82.90;;;;;;5093212;28;20485;-74
2021/12/17 10:59:22;;;;;;;22.23;8.52;;;8.10;83.40;;;;;;5094290;28;20016;-75
2021/12/17 11:02:05;;;;;;;15.10;6.20;;;8.20;83.10;;;;;;5085668;28;20150;-73
2021/12/17 11:04:43;;;;;;;13.23;6.22;;;8.30;83.50;;;;;;5076258;28;20434;-75
2021/12/17 11:07:17;;;;;;;14.02;4.43;;;8.30;83.20;;;;;;5074152;28;20131;-75
2021/12/17 11:09:46;;;;;;;15.70;4.75;;;8.40;82.30;;;;;;5053244;28;20032;-76
2021/12/17 11:12:17;;;;;;;14.63;4.82;;;8.40;81.10;;;;;;5053317;28;20482;-76
2021/12/17 11:14:45;;;;;;;11.38;4.45;;;8.20;80.90;;;;;;5054555;28;20108;-77
2021/12/17 11:17:14;;;;;;;6.20;3.83;;;8.10;81.40;;;;;;5053051;28;20032;-78
2021/12/17 11:19:42;;;;;;;11.75;4.45;;;8.00;82.10;;;;;;5036127;28;20029;-74
2021/12/17 11:22:12;;;;;;;17.75;5.32;;;8.00;82.60;;;;;;5052364;28;20032;-75
2021/12/17 11:24:40;;;;;;;13.25;4.55;;;8.00;82.50;;;;;;5052707;28;20110;-74
2021/12/17 11:27:08;;;;;;;16.45;4.45;;;8.00;82.30;;;;;;5052613;28;20024;-76
2021/12/17 11:29:34;;;;;;;12.50;4.70;;;7.90;81.60;;;;;;5054827;28;20055;-79
2021/12/17 11:32:04;;;;;;;11.05;3.90;;;7.80;82.10;;;;;;5054460;28;20474;-80
2021/12/17 11:34:33;;;;;;;12.48;4.70;;;7.80;82.50;;;;;;5037284;28;20025;-78
2021/12/17 11:37:03;;;;;;;13.13;4.32;;;7.80;82.80;;;;;;5053254;28;20032;-78
2021/12/17 11:39:38;;;;;;;7.93;4.72;;;7.70;83.10;;;;;;5054321;28;20028;-81
2021/12/17 11:42:25;;;;;;;13.88;4.70;;;7.70;83.30;;;;;;5054352;28;20029;-75
2021/12/17 11:47:46;;;;;;;11.88;5.53;;;7.60;83.00;;;;;;5056630;28;20055;-80
2021/12/17 11:50:34;;;;;;;12.63;4.43;;;7.60;83.90;;;;;;5053754;28;20027;-75
2021/12/17 11:53:21;;;;;;;10.13;3.83;;;7.70;84.20;;;;;;5064123;28;20059;-76
2021/12/17 11:56:08;;;;;;;10.02;3.47;;;7.80;83.20;;;;;;5074603;28;20051;-77
2021/12/17 11:58:48;;;;;;;14.20;3.53;;;7.80;82.80;;;;;;5093053;28;20059;-76
2021/12/17 12:01:49;;;;;;;9.73;4.22;;;7.80;82.50;;;;;;5093301;28;20054;-77
2021/12/17 12:04:40;;;;;;;9.25;3.55;;;7.90;81.90;;;;;;5092153;28;20032;-79
2021/12/17 12:07:25;;;;;;;9.48;3.72;;;7.80;81.40;;;;;;5091565;28;20378;-79
2021/12/17 12:10:21;;;;;;;10.98;3.60;;;7.70;81.50;;;;;;5091259;28;20031;-79
2021/12/17 12:12:48;;;;;;;10.27;3.45;;;7.70;82.80;;;;;;5052486;28;20476;-79
2021/12/17 12:15:27;;;;;;;13.52;4.75;;;7.70;82.80;;;;;;5052114;28;20056;-78
2021/12/17 12:18:11;;;;;;;11.40;4.60;;;7.70;83.50;;;;;;5052170;28;20043;-79
2021/12/17 12:20:57;;;;;;;13.02;5.50;;;7.80;83.40;;;;;;5051907;28;20013;-77
2021/12/17 12:23:29;;;;;;;19.00;5.30;;;7.80;83.60;;;;;;5051154;28;20028;-79
2021/12/17 12:26:12;;;;;;;26.42;4.65;;;7.80;83.80;;;;;;5056511;28;20029;-79
2021/12/17 12:28:50;;;;;;;11.80;3.88;;;7.80;84.60;;;;;;5057144;28;20514;-77
2021/12/17 12:31:32;;;;;;;12.73;4.70;;;7.90;84.50;;;;;;5057576;28;20025;-78
2021/12/17 12:34:10;;;;;;;13.13;3.70;;;8.00;84.10;;;;;;5055708;28;20056;-78
2021/12/17 12:37:07;;;;;;;10.98;4.07;;;8.00;84.00;;;;;;5056966;28;20043;-74
2021/12/17 12:39:35;;;;;;;14.98;3.80;;;8.10;83.20;;;;;;5055680;28;20025;-79
2021/12/17 12:42:22;;;;;;;24.63;8.50;;;8.10;82.70;;;;;;5055708;28;20036;-79
2021/12/17 12:44:55;;;;;;;16.38;7.13;;;8.20;82.50;;;;;;5057422;28;20086;-80
2021/12/17 12:47:23;;;;;;;12.95;6.93;;;8.10;82.60;;;;;;5090073;28;20058;-80
2021/12/17 12:49:54;;;;;;;10.15;4.30;;;8.20;82.70;;;;;;5096958;28;20032;-78
2021/12/17 12:52:45;;;;;;;11.77;3.35;;;8.20;81.80;;;;;;5097374;28;20024;-78
2021/12/17 12:55:43;;;;;;;15.33;3.93;;;8.30;81.30;;;;;;5094165;28;20080;-79
2021/12/17 12:58:23;;;;;;;9.00;3.30;;;8.20;80.80;;;;;;5051292;28;20293;-80
2021/12/17 13:00:56;;;;;;;10.02;3.92;;;8.20;80.80;;;;;;5070343;28;20049;-79
2021/12/17 13:03:33;;;;;;;6.45;3.22;;;8.10;80.40;;;;;;5070459;28;20366;-80
2021/12/17 13:06:01;;;;;;;11.70;4.03;;;8.10;81.00;;;;;;5076676;28;20039;-79
2021/12/17 13:08:32;;;;;;;15.63;4.22;;;8.10;80.10;;;;;;5074001;28;20420;-78
2021/12/17 13:11:04;;;;;;;12.52;3.58;;;8.10;80.60;;;;;;5054510;28;20506;-79
2021/12/17 13:13:36;;;;;;;;;;;8.00;80.30;;;;;;5055972;28;20094;-79
2021/12/17 13:16:20;;;;;;;9.57;3.33;;;7.90;80.50;;;;;;5056615;28;19915;-80
2021/12/17 13:22:24;;;;;;;9.73;3.25;;;7.80;80.90;;;;;;5075296;28;20361;-81
2021/12/17 13:24:51;;;;;;;10.23;3.85;;;7.80;81.20;;;;;;5074490;28;20466;-77
2021/12/17 13:27:16;;;;;;;8.25;3.33;;;7.70;81.00;;;;;;5075057;28;20135;-81
2021/12/17 13:29:44;;;;;;;12.45;4.85;;;7.70;81.70;;;;;;5074082;28;20120;-80
2021/12/17 13:32:20;;;;;;;11.48;3.38;;;7.70;81.20;;;;;;5074646;28;20029;-81
2021/12/17 13:34:58;;;;;;;11.48;4.20;;;7.70;81.20;;;;;;5076649;28;20028;-78
2021/12/17 13:37:30;;;;;;;7.97;3.05;;;7.60;81.10;;;;;;5074834;28;20054;-77
2021/12/17 13:40:05;;;;;;;7.70;3.47;;;7.50;81.60;;;;;;5083307;28;20063;-80
2021/12/17 13:42:47;;;;;;;11.18;3.60;;;7.50;81.90;;;;;;5090266;28;20119;-80
2021/12/17 13:45:30;;;;;;;13.60;3.20;;;7.50;82.50;;;;;;5069914;28;20032;-80
2021/12/17 13:47:57;;;;;;;9.43;4.45;;;7.50;82.40;;;;;;5095176;28;20016;-81
2021/12/17 13:50:31;;;;;;;9.98;3.63;;;7.50;82.30;;;;;;5068410;28;20532;-76
2021/12/17 13:53:10;;;;;;;7.05;3.60;;;7.50;82.60;;;;;;5057880;28;20151;-77
2021/12/17 13:55:42;;;;;;;20.58;5.97;;;7.50;82.80;;;;;;5083744;28;20052;-77
2021/12/17 13:58:13;;;;;;;;;;;7.50;83.00;;;;;;5086651;28;20033;-78
2021/12/17 14:00:44;;;;;;;10.98;3.58;;;7.50;83.20;;;;;;5086400;28;19908;-76
2021/12/17 14:03:14;;;;;;;7.35;3.30;;;7.50;83.10;;;;;;5057266;28;20037;-78
2021/12/17 14:05:44;;;;;;;8.50;3.83;;;7.40;83.20;;;;;;5075709;28;20025;-77
2021/12/17 14:08:17;;;;;;;9.73;3.50;;;7.40;83.20;;;;;;5073818;28;20040;-77
2021/12/17 14:10:53;;;;;;;9.70;3.80;;;7.30;83.80;;;;;;5073877;28;20023;-76
2021/12/17 14:13:22;;;;;;;9.40;3.38;;;7.30;83.70;;;;;;5075124;28;20067;-74
2021/12/17 14:15:50;;;;;;;14.35;4.95;;;7.20;83.80;;;;;;5073716;28;20029;-74
2021/12/17 14:18:20;;;;;;;22.02;4.78;;;7.20;84.70;;;;;;5056520;28;20600;-77
2021/12/17 14:20:51;;;;;;;8.00;3.83;;;7.20;84.80;;;;;;5074368;28;20025;-76
2021/12/17 14:23:23;;;;;;;10.93;3.90;;;7.20;84.90;;;;;;5074522;28;20121;-79
2021/12/17 14:25:51;;;;;;;;;;;7.10;84.80;;;;;;5064065;28;20021;-76
2021/12/17 14:28:20;;;;;;;10.60;4.25;;;7.10;84.60;;;;;;5056475;28;20368;-76
2021/12/17 14:31:04;;;;;;;14.25;6.70;;;7.00;85.20;;;;;;5071932;28;20052;-77
2021/12/17 14:33:40;;;;;;;5.20;3.42;;;7.10;85.30;;;;;;5071576;28;20033;-76
2021/12/17 14:36:11;;;;;;;10.07;3.65;;;7.00;85.40;;;;;;5079988;28;20381;-76
2021/12/17 14:38:46;;;;;;;10.85;4.38;;;7.00;85.60;;;;;;5052871;28;20466;-79
2021/12/17 14:41:48;;;;;;;14.45;4.25;;;6.90;85.80;;;;;;5053822;28;20139;-79
2021/12/17 14:44:39;;;;;;;10.75;4.60;;;7.00;86.20;;;;;;5053468;28;20029;-78
2021/12/17 14:47:20;;;;;;;13.45;4.28;;;7.00;86.20;;;;;;5052534;28;20033;-78
2021/12/17 15:03:42;;;;;;;13.85;4.70;;;7.10;86.70;;;;;;5054258;28;20036;-77
2021/12/17 15:06:14;;;;;;;10.25;4.22;;;7.10;86.40;;;;;;5053179;28;20474;-77
2021/12/17 15:08:44;;;;;;;12.25;5.03;;;7.10;86.20;;;;;;5053198;28;20029;-78
2021/12/17 15:11:37;;;;;;;15.48;5.40;;;7.10;85.70;;;;;;5052953;28;20025;-78
2021/12/17 15:14:06;;;;;;;16.42;5.15;;;7.10;85.90;;;;;;5053109;28;20037;-81
2021/12/17 15:16:35;;;;;;;12.75;5.13;;;7.10;86.00;;;;;;5037616;28;20031;-82
2021/12/17 15:19:03;;;;;;;13.02;4.72;;;7.10;86.00;;;;;;5053918;28;20466;-83
2021/12/17 15:21:31;;;;;;;11.05;4.85;;;7.10;86.40;;;;;;5053247;28;20100;-81
2021/12/17 15:24:02;;;;;;;12.52;5.32;;;7.10;86.30;;;;;;5056441;28;20032;-80
2021/12/17 15:26:29;;;;;;;13.97;5.80;;;7.10;86.40;;;;;;5063749;28;20071;-82
2021/12/17 15:28:56;;;;;;;16.38;5.20;;;7.10;86.40;;;;;;5063544;28;20024;-78
2021/12/17 15:31:22;;;;;;;10.05;4.57;;;7.10;86.60;;;;;;5060461;28;20047;-76
2021/12/17 15:33:49;;;;;;;9.38;5.30;;;7.10;86.30;;;;;;5060993;28;20533;-77
2021/12/17 15:36:15;;;;;;;15.10;5.80;;;7.20;86.10;;;;;;5052329;28;20460;-78
2021/12/17 15:38:42;;;;;;;12.27;4.75;;;7.20;86.00;;;;;;5052557;28;20048;-76
2021/12/17 15:41:09;;;;;;;17.33;5.78;;;7.20;85.90;;;;;;5052392;28;20070;-75
2021/12/17 15:43:38;;;;;;;13.88;6.38;;;7.20;86.00;;;;;;5035981;28;20428;-76
2021/12/17 15:46:05;;;;;;;21.58;6.32;;;7.10;86.10;;;;;;5052643;28;20064;-77
2021/12/17 15:48:32;;;;;;;18.05;5.55;;;7.10;86.10;;;;;;5053778;28;20052;-78
2021/12/17 15:50:59;;;;;;;20.30;7.25;;;7.00;86.40;;;;;;5054184;28;20025;-76
2021/12/17 15:53:27;;;;;;;11.77;6.20;;;6.90;86.60;;;;;;5059193;28;20117;-75
2021/12/17 15:55:55;;;;;;;13.02;5.88;;;6.90;87.00;;;;;;5053126;28;20509;-74
2021/12/17 15:58:23;;;;;;;17.05;5.80;;;6.80;87.00;;;;;;5051642;28;20017;-74
2021/12/17 16:00:50;;;;;;;21.00;5.57;;;6.80;87.60;;;;;;5051488;28;20496;-75
2021/12/17 16:03:25;;;;;;;18.38;6.75;;;6.70;87.80;;;;;;5055117;28;20024;-74
2021/12/17 16:05:51;;;;;;;13.43;6.18;;;6.70;88.10;;;;;;5059487;28;20509;-75
2021/12/17 16:08:19;;;;;;;15.77;5.97;;;6.70;88.10;;;;;;5069614;28;20047;-73
2021/12/17 16:21:40;;;;;;;13.18;5.07;;;6.50;89.20;;;;;;5073496;28;20469;-75
2021/12/17 16:24:06;;;;;;;15.38;6.43;;;6.40;90.00;;;;;;5038513;28;20137;-76
2021/12/17 16:26:32;;;;;;;13.10;5.90;;;6.40;89.50;;;;;;5055291;28;20215;-78
2021/12/17 16:29:01;;;;;;;23.52;6.50;;;6.30;89.60;;;;;;5055276;28;20389;-77
2021/12/17 16:31:29;;;;;;;14.52;5.78;;;6.30;89.90;;;;;;5073384;28;20029;-76
2021/12/17 16:34:02;;;;;;;15.68;5.95;;;6.10;90.10;;;;;;5055551;28;20054;-77
2021/12/17 16:36:35;;;;;;;18.05;5.95;;;6.10;90.20;;;;;;5073162;28;20028;-75
2021/12/17 16:39:18;;;;;;;28.00;6.28;;;6.00;90.40;;;;;;5071791;28;20082;-75
2021/12/17 16:41:46;;;;;;;17.08;6.95;;;6.00;90.60;;;;;;5071716;28;20021;-75
2021/12/17 16:44:18;;;;;;;14.98;6.50;;;5.90;90.90;;;;;;5054989;28;20055;-75